Terminal Aerodrome Forecast
Issued by NWS

Current Version | Previous Version | Text Only | Print | Product List | Glossary On
Versions: 1 2 3 4 5 6 7 8 9 10 11 12 13 14 15 16 17 18 19 20 21 22 23
000
FTUS41 KPHI 182300
TAFMIV
TAF
KMIV 182320Z 1900/1924 30007KT P6SM SCT040 BKN150
     FM191400 31010G17KT P6SM SCT045
      TEMPO 1916/1920 BKN045
     FM192100 31007KT P6SM FEW045=

USA.gov is the U.S. government's official web portal to all federal, state and local government web resources and services.